sensor_id;sensor_type;location;lat;lon;timestamp;temperature;humidity
5930;DHT22;2990;48.746;9.236;2024-02-23T00:00:38;4.70;1.00
5930;DHT22;2990;48.746;9.236;2024-02-23T00:03:03;4.70;1.00
5930;DHT22;2990;48.746;9.236;2024-02-23T00:05:29;4.70;1.00
5930;DHT22;2990;48.746;9.236;2024-02-23T00:07:54;4.70;1.00
5930;DHT22;2990;48.746;9.236;2024-02-23T00:10:20;4.70;1.00
5930;DHT22;2990;48.746;9.236;2024-02-23T00:12:45;4.70;1.00
5930;DHT22;2990;48.746;9.236;2024-02-23T00:15:13;4.70;1.00
5930;DHT22;2990;48.746;9.236;2024-02-23T00:17:38;4.70;3.10
5930;DHT22;2990;48.746;9.236;2024-02-23T00:20:05;4.70;1.00
5930;DHT22;2990;48.746;9.236;2024-02-23T00:22:33;4.70;1.00
5930;DHT22;2990;48.746;9.236;2024-02-23T00:24:59;4.70;1.00
5930;DHT22;2990;48.746;9.236;2024-02-23T00:27:24;4.70;1.00
5930;DHT22;2990;48.746;9.236;2024-02-23T00:29:50;4.70;1.00
5930;DHT22;2990;48.746;9.236;2024-02-23T00:32:15;4.60;1.00
5930;DHT22;2990;48.746;9.236;2024-02-23T00:34:41;4.70;1.00
5930;DHT22;2990;48.746;9.236;2024-02-23T00:37:06;4.70;1.00
5930;DHT22;2990;48.746;9.236;2024-02-23T00:39:33;4.70;1.00
5930;DHT22;2990;48.746;9.236;2024-02-23T00:41:58;4.70;1.00
5930;DHT22;2990;48.746;9.236;2024-02-23T00:44:24;4.70;1.00
5930;DHT22;2990;48.746;9.236;2024-02-23T00:46:50;4.70;1.00
5930;DHT22;2990;48.746;9.236;2024-02-23T00:49:15;4.70;1.00
5930;DHT22;2990;48.746;9.236;2024-02-23T00:51:42;4.70;1.00
5930;DHT22;2990;48.746;9.236;2024-02-23T00:54:08;4.70;1.00
5930;DHT22;2990;48.746;9.236;2024-02-23T00:56:34;4.70;1.00
5930;DHT22;2990;48.746;9.236;2024-02-23T00:59:00;4.70;1.00
5930;DHT22;2990;48.746;9.236;2024-02-23T01:01:25;4.70;1.00
5930;DHT22;2990;48.746;9.236;2024-02-23T01:03:52;4.70;1.00
5930;DHT22;2990;48.746;9.236;2024-02-23T01:06:17;4.70;1.00
5930;DHT22;2990;48.746;9.236;2024-02-23T01:08:43;4.60;1.00
5930;DHT22;2990;48.746;9.236;2024-02-23T01:11:09;4.60;1.00
5930;DHT22;2990;48.746;9.236;2024-02-23T01:13:34;4.60;1.00
5930;DHT22;2990;48.746;9.236;2024-02-23T01:16:00;4.60;1.00
5930;DHT22;2990;48.746;9.236;2024-02-23T01:18:25;4.60;1.00
5930;DHT22;2990;48.746;9.236;2024-02-23T01:20:51;4.60;1.00
5930;DHT22;2990;48.746;9.236;2024-02-23T01:23:16;4.60;1.00
5930;DHT22;2990;48.746;9.236;2024-02-23T01:25:42;4.60;1.00
5930;DHT22;2990;48.746;9.236;2024-02-23T01:28:08;4.60;1.00
5930;DHT22;2990;48.746;9.236;2024-02-23T01:30:33;4.60;1.00
5930;DHT22;2990;48.746;9.236;2024-02-23T01:32:59;4.60;1.00
5930;DHT22;2990;48.746;9.236;2024-02-23T01:35:25;4.60;1.00
5930;DHT22;2990;48.746;9.236;2024-02-23T01:37:51;4.50;1.00
5930;DHT22;2990;48.746;9.236;2024-02-23T01:40:16;4.50;1.00
5930;DHT22;2990;48.746;9.236;2024-02-23T01:42:42;4.50;1.00
5930;DHT22;2990;48.746;9.236;2024-02-23T01:45:08;4.40;1.00
5930;DHT22;2990;48.746;9.236;2024-02-23T01:47:33;4.40;1.00
5930;DHT22;2990;48.746;9.236;2024-02-23T01:49:59;4.40;12.20
5930;DHT22;2990;48.746;9.236;2024-02-23T01:52:25;4.40;10.60
5930;DHT22;2990;48.746;9.236;2024-02-23T01:54:52;4.40;5.20
5930;DHT22;2990;48.746;9.236;2024-02-23T01:57:18;4.50;1.00
5930;DHT22;2990;48.746;9.236;2024-02-23T01:59:44;4.50;3.30
5930;DHT22;2990;48.746;9.236;2024-02-23T02:02:09;4.50;1.00
5930;DHT22;2990;48.746;9.236;2024-02-23T02:04:35;4.50;1.00
5930;DHT22;2990;48.746;9.236;2024-02-23T02:07:01;4.50;1.00
5930;DHT22;2990;48.746;9.236;2024-02-23T02:09:27;4.50;1.00
5930;DHT22;2990;48.746;9.236;2024-02-23T02:11:52;4.60;1.00
5930;DHT22;2990;48.746;9.236;2024-02-23T02:14:18;4.60;7.80
5930;DHT22;2990;48.746;9.236;2024-02-23T02:16:44;4.50;9.80
5930;DHT22;2990;48.746;9.236;2024-02-23T02:19:10;4.60;22.10
5930;DHT22;2990;48.746;9.236;2024-02-23T02:21:37;4.50;36.00
5930;DHT22;2990;48.746;9.236;2024-02-23T02:24:03;4.50;50.20
5930;DHT22;2990;48.746;9.236;2024-02-23T02:26:29;4.50;77.60
5930;DHT22;2990;48.746;9.236;2024-02-23T02:36:01;4.30;99.90
5930;DHT22;2990;48.746;9.236;2024-02-23T02:38:27;4.30;99.90
5930;DHT22;2990;48.746;9.236;2024-02-23T02:40:52;4.20;99.90
5930;DHT22;2990;48.746;9.236;2024-02-23T02:45:44;4.20;99.90
5930;DHT22;2990;48.746;9.236;2024-02-23T02:48:09;4.20;99.90
5930;DHT22;2990;48.746;9.236;2024-02-23T02:50:35;4.10;99.90
5930;DHT22;2990;48.746;9.236;2024-02-23T02:53:00;4.10;99.90
5930;DHT22;2990;48.746;9.236;2024-02-23T02:55:26;4.10;99.90
5930;DHT22;2990;48.746;9.236;2024-02-23T02:57:51;4.10;99.90
5930;DHT22;2990;48.746;9.236;2024-02-23T03:00:17;4.00;99.90
5930;DHT22;2990;48.746;9.236;2024-02-23T03:02:43;4.00;99.90
5930;DHT22;2990;48.746;9.236;2024-02-23T03:05:08;4.00;99.90
5930;DHT22;2990;48.746;9.236;2024-02-23T03:07:34;3.90;99.90
5930;DHT22;2990;48.746;9.236;2024-02-23T03:09:59;3.90;99.90
5930;DHT22;2990;48.746;9.236;2024-02-23T03:12:25;3.90;99.90
5930;DHT22;2990;48.746;9.236;2024-02-23T03:14:50;3.90;99.90
5930;DHT22;2990;48.746;9.236;2024-02-23T03:17:16;3.90;99.90
5930;DHT22;2990;48.746;9.236;2024-02-23T03:19:41;3.90;99.90
5930;DHT22;2990;48.746;9.236;2024-02-23T03:22:07;3.90;99.90
5930;DHT22;2990;48.746;9.236;2024-02-23T03:24:33;3.90;95.20
5930;DHT22;2990;48.746;9.236;2024-02-23T03:26:58;3.90;55.20
5930;DHT22;2990;48.746;9.236;2024-02-23T03:29:24;3.90;15.70
5930;DHT22;2990;48.746;9.236;2024-02-23T03:31:50;3.90;1.00
5930;DHT22;2990;48.746;9.236;2024-02-23T03:34:16;3.90;1.00
5930;DHT22;2990;48.746;9.236;2024-02-23T03:36:42;3.90;1.00
5930;DHT22;2990;48.746;9.236;2024-02-23T03:39:08;3.90;1.00
5930;DHT22;2990;48.746;9.236;2024-02-23T03:41:33;3.90;1.00
5930;DHT22;2990;48.746;9.236;2024-02-23T03:43:59;3.90;1.00
5930;DHT22;2990;48.746;9.236;2024-02-23T03:46:24;3.90;1.00
5930;DHT22;2990;48.746;9.236;2024-02-23T03:48:50;3.90;99.90
5930;DHT22;2990;48.746;9.236;2024-02-23T03:51:17;3.90;99.90
5930;DHT22;2990;48.746;9.236;2024-02-23T03:53:42;3.90;99.90
5930;DHT22;2990;48.746;9.236;2024-02-23T03:56:08;3.90;1.00
5930;DHT22;2990;48.746;9.236;2024-02-23T03:58:33;3.90;1.00
5930;DHT22;2990;48.746;9.236;2024-02-23T04:00:59;3.90;1.00
5930;DHT22;2990;48.746;9.236;2024-02-23T04:03:25;3.90;1.00
5930;DHT22;2990;48.746;9.236;2024-02-23T04:05:50;3.90;1.00
5930;DHT22;2990;48.746;9.236;2024-02-23T04:08:16;3.90;1.00
5930;DHT22;2990;48.746;9.236;2024-02-23T04:10:41;4.00;99.90
5930;DHT22;2990;48.746;9.236;2024-02-23T04:13:07;4.00;1.00
5930;DHT22;2990;48.746;9.236;2024-02-23T04:15:32;3.90;1.00
5930;DHT22;2990;48.746;9.236;2024-02-23T04:17:58;3.90;1.00
5930;DHT22;2990;48.746;9.236;2024-02-23T04:20:23;3.90;74.60
5930;DHT22;2990;48.746;9.236;2024-02-23T04:22:49;3.90;99.90
5930;DHT22;2990;48.746;9.236;2024-02-23T04:25:14;3.90;1.00
5930;DHT22;2990;48.746;9.236;2024-02-23T04:27:40;3.90;1.00
5930;DHT22;2990;48.746;9.236;2024-02-23T04:30:06;3.90;99.90
5930;DHT22;2990;48.746;9.236;2024-02-23T04:32:31;3.80;1.00
5930;DHT22;2990;48.746;9.236;2024-02-23T04:34:57;3.80;13.80
5930;DHT22;2990;48.746;9.236;2024-02-23T04:37:23;3.70;1.00
5930;DHT22;2990;48.746;9.236;2024-02-23T04:39:48;3.70;99.90
5930;DHT22;2990;48.746;9.236;2024-02-23T04:42:14;3.70;1.00
5930;DHT22;2990;48.746;9.236;2024-02-23T04:44:41;3.70;1.00
5930;DHT22;2990;48.746;9.236;2024-02-23T04:47:08;3.70;1.00
5930;DHT22;2990;48.746;9.236;2024-02-23T04:49:34;3.70;1.00
5930;DHT22;2990;48.746;9.236;2024-02-23T04:52:00;3.70;1.00
5930;DHT22;2990;48.746;9.236;2024-02-23T04:54:25;3.80;1.00
5930;DHT22;2990;48.746;9.236;2024-02-23T04:56:51;3.80;1.00
5930;DHT22;2990;48.746;9.236;2024-02-23T04:59:16;3.70;1.00
5930;DHT22;2990;48.746;9.236;2024-02-23T05:01:42;3.70;99.90
5930;DHT22;2990;48.746;9.236;2024-02-23T05:04:08;3.70;1.00
5930;DHT22;2990;48.746;9.236;2024-02-23T05:06:34;3.70;99.90
5930;DHT22;2990;48.746;9.236;2024-02-23T05:09:00;3.70;1.00
5930;DHT22;2990;48.746;9.236;2024-02-23T05:11:26;3.60;99.90
5930;DHT22;2990;48.746;9.236;2024-02-23T05:13:52;3.70;1.00
5930;DHT22;2990;48.746;9.236;2024-02-23T05:16:17;3.60;92.90
5930;DHT22;2990;48.746;9.236;2024-02-23T05:18:43;3.60;31.90
5930;DHT22;2990;48.746;9.236;2024-02-23T05:21:09;3.60;1.00
5930;DHT22;2990;48.746;9.236;2024-02-23T05:23:35;3.50;99.90
5930;DHT22;2990;48.746;9.236;2024-02-23T05:28:31;3.40;1.00
5930;DHT22;2990;48.746;9.236;2024-02-23T05:30:56;3.40;1.00
5930;DHT22;2990;48.746;9.236;2024-02-23T05:33:23;3.40;99.90
5930;DHT22;2990;48.746;9.236;2024-02-23T05:35:49;3.40;1.00
5930;DHT22;2990;48.746;9.236;2024-02-23T05:38:15;3.40;1.00
5930;DHT22;2990;48.746;9.236;2024-02-23T05:40:41;3.30;1.00
5930;DHT22;2990;48.746;9.236;2024-02-23T05:43:06;3.30;1.00
5930;DHT22;2990;48.746;9.236;2024-02-23T05:45:32;3.30;1.00
5930;DHT22;2990;48.746;9.236;2024-02-23T05:47:57;3.30;1.00
5930;DHT22;2990;48.746;9.236;2024-02-23T05:50:23;3.30;1.00
5930;DHT22;2990;48.746;9.236;2024-02-23T05:52:49;3.20;76.50
5930;DHT22;2990;48.746;9.236;2024-02-23T05:55:14;3.20;99.90
5930;DHT22;2990;48.746;9.236;2024-02-23T05:57:40;3.20;99.90
5930;DHT22;2990;48.746;9.236;2024-02-23T06:00:06;3.10;1.00
5930;DHT22;2990;48.746;9.236;2024-02-23T06:02:32;3.00;1.00
5930;DHT22;2990;48.746;9.236;2024-02-23T06:04:58;3.00;1.00
5930;DHT22;2990;48.746;9.236;2024-02-23T06:07:24;2.90;1.00
5930;DHT22;2990;48.746;9.236;2024-02-23T06:09:55;2.80;1.00
5930;DHT22;2990;48.746;9.236;2024-02-23T06:12:21;2.80;1.00
5930;DHT22;2990;48.746;9.236;2024-02-23T06:14:47;2.80;1.00
5930;DHT22;2990;48.746;9.236;2024-02-23T06:17:12;2.70;1.00
5930;DHT22;2990;48.746;9.236;2024-02-23T06:19:38;2.70;1.00
5930;DHT22;2990;48.746;9.236;2024-02-23T06:22:04;2.70;1.00
5930;DHT22;2990;48.746;9.236;2024-02-23T06:24:29;2.80;1.00
5930;DHT22;2990;48.746;9.236;2024-02-23T06:26:55;2.80;1.00
5930;DHT22;2990;48.746;9.236;2024-02-23T06:29:20;2.70;15.80
5930;DHT22;2990;48.746;9.236;2024-02-23T06:31:46;2.70;32.10
5930;DHT22;2990;48.746;9.236;2024-02-23T06:34:15;2.80;58.60
5930;DHT22;2990;48.746;9.236;2024-02-23T06:36:41;2.80;92.80
5930;DHT22;2990;48.746;9.236;2024-02-23T06:39:34;2.80;99.90
5930;DHT22;2990;48.746;9.236;2024-02-23T06:42:00;2.80;99.90
5930;DHT22;2990;48.746;9.236;2024-02-23T06:44:29;2.80;99.90
5930;DHT22;2990;48.746;9.236;2024-02-23T06:46:54;2.90;99.90
5930;DHT22;2990;48.746;9.236;2024-02-23T06:49:20;2.90;99.90
5930;DHT22;2990;48.746;9.236;2024-02-23T06:51:45;2.90;99.90
5930;DHT22;2990;48.746;9.236;2024-02-23T06:54:11;3.00;99.90
5930;DHT22;2990;48.746;9.236;2024-02-23T06:57:14;3.00;99.90
5930;DHT22;2990;48.746;9.236;2024-02-23T06:59:39;3.10;99.90
5930;DHT22;2990;48.746;9.236;2024-02-23T07:02:05;3.20;99.90
5930;DHT22;2990;48.746;9.236;2024-02-23T07:07:53;3.20;40.70
5930;DHT22;2990;48.746;9.236;2024-02-23T07:13:43;3.30;11.30
5930;DHT22;2990;48.746;9.236;2024-02-23T07:16:14;3.30;1.90
5930;DHT22;2990;48.746;9.236;2024-02-23T07:18:40;3.20;1.00
5930;DHT22;2990;48.746;9.236;2024-02-23T07:21:07;3.30;1.40
5930;DHT22;2990;48.746;9.236;2024-02-23T07:23:32;3.30;1.80
5930;DHT22;2990;48.746;9.236;2024-02-23T07:25:58;3.30;1.00
5930;DHT22;2990;48.746;9.236;2024-02-23T07:28:23;3.30;1.00
5930;DHT22;2990;48.746;9.236;2024-02-23T07:30:49;3.30;1.00
5930;DHT22;2990;48.746;9.236;2024-02-23T07:33:14;3.40;1.00
5930;DHT22;2990;48.746;9.236;2024-02-23T07:35:40;3.50;1.00
5930;DHT22;2990;48.746;9.236;2024-02-23T07:38:05;3.50;1.00
5930;DHT22;2990;48.746;9.236;2024-02-23T07:40:31;3.50;1.00
5930;DHT22;2990;48.746;9.236;2024-02-23T07:42:59;3.60;1.00
5930;DHT22;2990;48.746;9.236;2024-02-23T07:45:25;3.70;1.00
5930;DHT22;2990;48.746;9.236;2024-02-23T07:47:51;3.80;1.00
5930;DHT22;2990;48.746;9.236;2024-02-23T07:50:17;3.90;1.00
5930;DHT22;2990;48.746;9.236;2024-02-23T07:52:44;3.90;1.00
5930;DHT22;2990;48.746;9.236;2024-02-23T07:55:10;4.00;1.00
5930;DHT22;2990;48.746;9.236;2024-02-23T07:57:36;3.90;1.00
5930;DHT22;2990;48.746;9.236;2024-02-23T08:03:23;4.00;1.00
5930;DHT22;2990;48.746;9.236;2024-02-23T08:05:49;4.00;1.00
5930;DHT22;2990;48.746;9.236;2024-02-23T08:08:14;4.00;1.00
5930;DHT22;2990;48.746;9.236;2024-02-23T08:14:02;4.00;1.00
5930;DHT22;2990;48.746;9.236;2024-02-23T08:16:28;4.00;1.00
5930;DHT22;2990;48.746;9.236;2024-02-23T08:18:54;4.00;1.00
5930;DHT22;2990;48.746;9.236;2024-02-23T08:21:19;4.00;99.90
5930;DHT22;2990;48.746;9.236;2024-02-23T08:23:45;4.00;99.90
5930;DHT22;2990;48.746;9.236;2024-02-23T08:26:11;4.00;99.90
5930;DHT22;2990;48.746;9.236;2024-02-23T08:28:36;4.10;99.90
5930;DHT22;2990;48.746;9.236;2024-02-23T08:31:02;4.10;99.90
5930;DHT22;2990;48.746;9.236;2024-02-23T08:33:28;4.20;99.90
5930;DHT22;2990;48.746;9.236;2024-02-23T08:35:53;4.20;99.90
5930;DHT22;2990;48.746;9.236;2024-02-23T08:38:19;4.30;99.90
5930;DHT22;2990;48.746;9.236;2024-02-23T08:40:45;4.30;1.00
5930;DHT22;2990;48.746;9.236;2024-02-23T08:43:10;4.30;99.90
5930;DHT22;2990;48.746;9.236;2024-02-23T08:45:36;4.30;1.00
5930;DHT22;2990;48.746;9.236;2024-02-23T08:48:02;4.30;1.00
5930;DHT22;2990;48.746;9.236;2024-02-23T08:50:28;4.40;1.00
5930;DHT22;2990;48.746;9.236;2024-02-23T08:52:54;4.40;1.00
5930;DHT22;2990;48.746;9.236;2024-02-23T08:55:20;4.40;1.00
5930;DHT22;2990;48.746;9.236;2024-02-23T08:57:46;4.50;1.00
5930;DHT22;2990;48.746;9.236;2024-02-23T09:00:12;4.60;1.00
5930;DHT22;2990;48.746;9.236;2024-02-23T09:02:38;4.60;99.90
5930;DHT22;2990;48.746;9.236;2024-02-23T09:05:04;4.60;99.90
5930;DHT22;2990;48.746;9.236;2024-02-23T09:07:30;4.70;99.90
5930;DHT22;2990;48.746;9.236;2024-02-23T09:09:56;4.60;99.90
5930;DHT22;2990;48.746;9.236;2024-02-23T09:12:22;4.60;1.00
5930;DHT22;2990;48.746;9.236;2024-02-23T09:14:48;4.60;99.90
5930;DHT22;2990;48.746;9.236;2024-02-23T09:17:13;4.70;1.00
5930;DHT22;2990;48.746;9.236;2024-02-23T09:19:39;4.70;1.00
5930;DHT22;2990;48.746;9.236;2024-02-23T09:22:04;4.70;1.00
5930;DHT22;2990;48.746;9.236;2024-02-23T09:24:30;4.80;47.40
5930;DHT22;2990;48.746;9.236;2024-02-23T09:26:55;4.90;1.00
5930;DHT22;2990;48.746;9.236;2024-02-23T09:29:21;4.90;99.90
5930;DHT22;2990;48.746;9.236;2024-02-23T09:31:47;5.00;99.90
5930;DHT22;2990;48.746;9.236;2024-02-23T09:34:13;5.00;1.00
5930;DHT22;2990;48.746;9.236;2024-02-23T09:36:39;5.00;99.90
5930;DHT22;2990;48.746;9.236;2024-02-23T09:39:04;5.00;99.90
5930;DHT22;2990;48.746;9.236;2024-02-23T09:41:30;5.10;1.00
5930;DHT22;2990;48.746;9.236;2024-02-23T09:43:58;5.10;1.00
5930;DHT22;2990;48.746;9.236;2024-02-23T09:46:25;5.20;99.90
5930;DHT22;2990;48.746;9.236;2024-02-23T09:48:51;5.20;99.90
5930;DHT22;2990;48.746;9.236;2024-02-23T09:51:17;5.40;99.90
5930;DHT22;2990;48.746;9.236;2024-02-23T09:53:43;5.40;1.00
5930;DHT22;2990;48.746;9.236;2024-02-23T09:56:09;5.60;1.00
5930;DHT22;2990;48.746;9.236;2024-02-23T10:01:53;5.80;25.70
5930;DHT22;2990;48.746;9.236;2024-02-23T10:07:41;6.10;99.90
5930;DHT22;2990;48.746;9.236;2024-02-23T10:10:08;6.10;99.90
5930;DHT22;2990;48.746;9.236;2024-02-23T10:12:34;6.10;65.30
5930;DHT22;2990;48.746;9.236;2024-02-23T10:15:01;6.20;99.90
5930;DHT22;2990;48.746;9.236;2024-02-23T10:17:30;6.20;99.90
5930;DHT22;2990;48.746;9.236;2024-02-23T10:19:55;6.10;99.90
5930;DHT22;2990;48.746;9.236;2024-02-23T10:22:23;6.10;99.90
5930;DHT22;2990;48.746;9.236;2024-02-23T10:24:50;6.00;99.90
5930;DHT22;2990;48.746;9.236;2024-02-23T10:27:16;6.00;1.00
5930;DHT22;2990;48.746;9.236;2024-02-23T10:29:42;6.10;65.30
5930;DHT22;2990;48.746;9.236;2024-02-23T10:32:12;6.20;1.00
5930;DHT22;2990;48.746;9.236;2024-02-23T10:34:42;6.10;1.00
5930;DHT22;2990;48.746;9.236;2024-02-23T10:37:07;6.20;1.00
5930;DHT22;2990;48.746;9.236;2024-02-23T10:39:36;6.10;1.00
5930;DHT22;2990;48.746;9.236;2024-02-23T10:42:03;6.20;1.00
5930;DHT22;2990;48.746;9.236;2024-02-23T10:44:30;6.20;1.00
5930;DHT22;2990;48.746;9.236;2024-02-23T10:46:58;6.30;1.00
5930;DHT22;2990;48.746;9.236;2024-02-23T10:49:24;6.20;99.90
5930;DHT22;2990;48.746;9.236;2024-02-23T10:51:52;6.20;1.00
5930;DHT22;2990;48.746;9.236;2024-02-23T10:54:19;6.30;1.00
5930;DHT22;2990;48.746;9.236;2024-02-23T10:56:51;6.30;1.00
5930;DHT22;2990;48.746;9.236;2024-02-23T10:59:18;6.30;1.00
5930;DHT22;2990;48.746;9.236;2024-02-23T11:01:49;6.40;99.90
5930;DHT22;2990;48.746;9.236;2024-02-23T11:04:16;6.40;99.90
5930;DHT22;2990;48.746;9.236;2024-02-23T11:06:42;6.60;99.90
5930;DHT22;2990;48.746;9.236;2024-02-23T11:09:14;6.70;99.90
5930;DHT22;2990;48.746;9.236;2024-02-23T11:11:39;6.90;99.90
5930;DHT22;2990;48.746;9.236;2024-02-23T11:14:08;6.80;8.70
5930;DHT22;2990;48.746;9.236;2024-02-23T11:16:39;6.80;65.30
5930;DHT22;2990;48.746;9.236;2024-02-23T11:19:07;6.80;89.20
5930;DHT22;2990;48.746;9.236;2024-02-23T11:21:37;6.90;16.40
5930;DHT22;2990;48.746;9.236;2024-02-23T11:24:04;6.80;1.00
5930;DHT22;2990;48.746;9.236;2024-02-23T11:26:30;6.80;1.00
5930;DHT22;2990;48.746;9.236;2024-02-23T11:28:55;6.70;1.00
5930;DHT22;2990;48.746;9.236;2024-02-23T11:31:22;6.80;12.50
5930;DHT22;2990;48.746;9.236;2024-02-23T11:33:53;6.80;1.00
5930;DHT22;2990;48.746;9.236;2024-02-23T11:36:29;6.90;1.00
5930;DHT22;2990;48.746;9.236;2024-02-23T11:38:57;7.00;1.00
5930;DHT22;2990;48.746;9.236;2024-02-23T11:41:24;7.00;1.00
5930;DHT22;2990;48.746;9.236;2024-02-23T11:43:53;7.10;33.20
5930;DHT22;2990;48.746;9.236;2024-02-23T11:46:20;7.20;1.00
5930;DHT22;2990;48.746;9.236;2024-02-23T11:48:46;7.10;1.00
5930;DHT22;2990;48.746;9.236;2024-02-23T11:51:15;7.10;1.00
5930;DHT22;2990;48.746;9.236;2024-02-23T11:53:41;7.00;1.00
5930;DHT22;2990;48.746;9.236;2024-02-23T11:56:07;7.00;1.00
5930;DHT22;2990;48.746;9.236;2024-02-23T11:58:33;7.00;1.00
5930;DHT22;2990;48.746;9.236;2024-02-23T12:04:21;7.00;1.00
5930;DHT22;2990;48.746;9.236;2024-02-23T12:06:47;7.10;1.00
5930;DHT22;2990;48.746;9.236;2024-02-23T12:09:13;7.10;1.00
5930;DHT22;2990;48.746;9.236;2024-02-23T12:11:39;7.20;1.00
5930;DHT22;2990;48.746;9.236;2024-02-23T12:14:05;7.30;1.00
5930;DHT22;2990;48.746;9.236;2024-02-23T12:16:37;7.50;1.00
5930;DHT22;2990;48.746;9.236;2024-02-23T12:19:02;7.50;1.00
5930;DHT22;2990;48.746;9.236;2024-02-23T12:21:34;7.50;1.00
5930;DHT22;2990;48.746;9.236;2024-02-23T12:24:00;7.50;1.00
5930;DHT22;2990;48.746;9.236;2024-02-23T12:26:25;7.40;1.00
5930;DHT22;2990;48.746;9.236;2024-02-23T12:28:51;7.30;1.00
5930;DHT22;2990;48.746;9.236;2024-02-23T12:31:23;7.30;1.00
5930;DHT22;2990;48.746;9.236;2024-02-23T12:33:50;7.40;1.00
5930;DHT22;2990;48.746;9.236;2024-02-23T12:36:15;7.50;1.00
5930;DHT22;2990;48.746;9.236;2024-02-23T12:38:41;7.50;1.00
5930;DHT22;2990;48.746;9.236;2024-02-23T12:41:06;7.40;1.00
5930;DHT22;2990;48.746;9.236;2024-02-23T12:43:33;7.50;1.00
5930;DHT22;2990;48.746;9.236;2024-02-23T12:45:58;7.50;1.00
5930;DHT22;2990;48.746;9.236;2024-02-23T12:48:24;7.50;1.00
5930;DHT22;2990;48.746;9.236;2024-02-23T12:50:50;7.50;1.00
5930;DHT22;2990;48.746;9.236;2024-02-23T12:56:06;7.30;1.00
5930;DHT22;2990;48.746;9.236;2024-02-23T12:58:33;7.30;1.00
5930;DHT22;2990;48.746;9.236;2024-02-23T13:00:59;7.30;1.00
5930;DHT22;2990;48.746;9.236;2024-02-23T13:03:26;7.20;1.00
5930;DHT22;2990;48.746;9.236;2024-02-23T13:05:55;7.20;1.00
5930;DHT22;2990;48.746;9.236;2024-02-23T13:08:22;7.10;1.00
5930;DHT22;2990;48.746;9.236;2024-02-23T13:10:48;7.10;1.00
5930;DHT22;2990;48.746;9.236;2024-02-23T13:16:35;7.30;1.00
5930;DHT22;2990;48.746;9.236;2024-02-23T13:19:01;7.40;1.00
5930;DHT22;2990;48.746;9.236;2024-02-23T13:21:26;7.50;1.00
5930;DHT22;2990;48.746;9.236;2024-02-23T13:23:52;7.60;1.00
5930;DHT22;2990;48.746;9.236;2024-02-23T13:26:17;7.70;1.00
5930;DHT22;2990;48.746;9.236;2024-02-23T13:28:43;7.80;1.00
5930;DHT22;2990;48.746;9.236;2024-02-23T13:31:09;7.80;1.00
5930;DHT22;2990;48.746;9.236;2024-02-23T13:33:35;7.80;1.00
5930;DHT22;2990;48.746;9.236;2024-02-23T13:36:01;7.60;1.00
5930;DHT22;2990;48.746;9.236;2024-02-23T13:38:26;7.60;1.00
5930;DHT22;2990;48.746;9.236;2024-02-23T13:40:52;7.50;1.00
5930;DHT22;2990;48.746;9.236;2024-02-23T13:43:17;7.50;1.00
5930;DHT22;2990;48.746;9.236;2024-02-23T13:45:50;7.50;1.00
5930;DHT22;2990;48.746;9.236;2024-02-23T13:48:19;7.50;1.00
5930;DHT22;2990;48.746;9.236;2024-02-23T13:50:46;7.50;1.00
5930;DHT22;2990;48.746;9.236;2024-02-23T13:53:12;7.50;1.00
5930;DHT22;2990;48.746;9.236;2024-02-23T13:55:38;7.50;1.00
5930;DHT22;2990;48.746;9.236;2024-02-23T13:58:04;7.40;1.00
5930;DHT22;2990;48.746;9.236;2024-02-23T14:00:30;7.50;1.00
5930;DHT22;2990;48.746;9.236;2024-02-23T14:02:55;7.50;1.00
5930;DHT22;2990;48.746;9.236;2024-02-23T14:05:21;7.50;1.00
5930;DHT22;2990;48.746;9.236;2024-02-23T14:07:47;7.50;1.00
5930;DHT22;2990;48.746;9.236;2024-02-23T14:10:13;7.40;1.00
5930;DHT22;2990;48.746;9.236;2024-02-23T14:12:40;7.40;1.00
5930;DHT22;2990;48.746;9.236;2024-02-23T14:15:06;7.40;1.00
5930;DHT22;2990;48.746;9.236;2024-02-23T14:17:31;7.40;1.00
5930;DHT22;2990;48.746;9.236;2024-02-23T14:19:57;7.50;1.00
5930;DHT22;2990;48.746;9.236;2024-02-23T14:22:23;7.50;1.00
5930;DHT22;2990;48.746;9.236;2024-02-23T14:24:48;7.60;1.00
5930;DHT22;2990;48.746;9.236;2024-02-23T14:27:14;7.60;1.00
5930;DHT22;2990;48.746;9.236;2024-02-23T14:29:39;7.50;1.00
5930;DHT22;2990;48.746;9.236;2024-02-23T14:32:05;7.60;1.00
5930;DHT22;2990;48.746;9.236;2024-02-23T14:34:30;7.60;1.00
5930;DHT22;2990;48.746;9.236;2024-02-23T14:36:58;7.60;1.00
5930;DHT22;2990;48.746;9.236;2024-02-23T14:39:24;7.60;1.00
5930;DHT22;2990;48.746;9.236;2024-02-23T14:41:50;7.60;1.00
5930;DHT22;2990;48.746;9.236;2024-02-23T14:44:15;7.70;1.00
5930;DHT22;2990;48.746;9.236;2024-02-23T14:46:41;7.80;1.00
5930;DHT22;2990;48.746;9.236;2024-02-23T14:49:07;8.10;1.00
5930;DHT22;2990;48.746;9.236;2024-02-23T14:51:32;8.30;1.00
5930;DHT22;2990;48.746;9.236;2024-02-23T14:53:59;8.40;1.00
5930;DHT22;2990;48.746;9.236;2024-02-23T14:56:27;8.30;1.00
5930;DHT22;2990;48.746;9.236;2024-02-23T14:59:24;8.10;1.00
5930;DHT22;2990;48.746;9.236;2024-02-23T15:01:50;7.90;1.00
5930;DHT22;2990;48.746;9.236;2024-02-23T15:04:15;7.80;1.00
5930;DHT22;2990;48.746;9.236;2024-02-23T15:06:41;7.70;1.00
5930;DHT22;2990;48.746;9.236;2024-02-23T15:09:06;7.60;1.00
5930;DHT22;2990;48.746;9.236;2024-02-23T15:11:32;7.50;1.00
5930;DHT22;2990;48.746;9.236;2024-02-23T15:13:57;7.50;1.00
5930;DHT22;2990;48.746;9.236;2024-02-23T15:16:24;7.40;1.00
5930;DHT22;2990;48.746;9.236;2024-02-23T15:18:50;7.40;1.00
5930;DHT22;2990;48.746;9.236;2024-02-23T15:21:16;7.40;1.00
5930;DHT22;2990;48.746;9.236;2024-02-23T15:23:43;7.30;1.00
5930;DHT22;2990;48.746;9.236;2024-02-23T15:26:08;7.30;1.00
5930;DHT22;2990;48.746;9.236;2024-02-23T15:28:34;7.30;1.00
5930;DHT22;2990;48.746;9.236;2024-02-23T15:31:00;7.30;1.00
5930;DHT22;2990;48.746;9.236;2024-02-23T15:33:28;7.40;1.00
5930;DHT22;2990;48.746;9.236;2024-02-23T15:35:54;7.40;1.00
5930;DHT22;2990;48.746;9.236;2024-02-23T15:38:19;7.40;1.00
5930;DHT22;2990;48.746;9.236;2024-02-23T15:40:45;7.40;1.00
5930;DHT22;2990;48.746;9.236;2024-02-23T15:43:11;7.40;1.00
5930;DHT22;2990;48.746;9.236;2024-02-23T15:45:36;7.30;1.00
5930;DHT22;2990;48.746;9.236;2024-02-23T15:48:02;7.30;1.00
5930;DHT22;2990;48.746;9.236;2024-02-23T15:50:27;7.30;1.00
5930;DHT22;2990;48.746;9.236;2024-02-23T15:52:54;7.20;1.00
5930;DHT22;2990;48.746;9.236;2024-02-23T15:55:20;7.20;1.00
5930;DHT22;2990;48.746;9.236;2024-02-23T15:57:45;7.20;1.00
5930;DHT22;2990;48.746;9.236;2024-02-23T16:00:11;7.10;1.00
5930;DHT22;2990;48.746;9.236;2024-02-23T16:02:37;7.10;1.00
5930;DHT22;2990;48.746;9.236;2024-02-23T16:05:03;7.10;1.00
5930;DHT22;2990;48.746;9.236;2024-02-23T16:07:29;7.10;1.00
5930;DHT22;2990;48.746;9.236;2024-02-23T16:09:55;7.10;1.00
5930;DHT22;2990;48.746;9.236;2024-02-23T16:12:20;7.10;1.00
5930;DHT22;2990;48.746;9.236;2024-02-23T16:14:46;7.10;1.00
5930;DHT22;2990;48.746;9.236;2024-02-23T16:17:11;7.00;1.00
5930;DHT22;2990;48.746;9.236;2024-02-23T16:19:37;7.00;1.00
5930;DHT22;2990;48.746;9.236;2024-02-23T16:22:02;7.00;1.00
5930;DHT22;2990;48.746;9.236;2024-02-23T16:24:28;6.90;36.00
5930;DHT22;2990;48.746;9.236;2024-02-23T16:26:54;6.90;99.90
5930;DHT22;2990;48.746;9.236;2024-02-23T16:29:19;6.70;99.90
5930;DHT22;2990;48.746;9.236;2024-02-23T16:31:45;6.70;99.90
5930;DHT22;2990;48.746;9.236;2024-02-23T16:34:10;6.50;99.90
5930;DHT22;2990;48.746;9.236;2024-02-23T16:36:37;6.50;1.00
5930;DHT22;2990;48.746;9.236;2024-02-23T16:39:03;6.40;80.30
5930;DHT22;2990;48.746;9.236;2024-02-23T16:41:32;6.30;99.90
5930;DHT22;2990;48.746;9.236;2024-02-23T16:43:58;6.30;1.00
5930;DHT22;2990;48.746;9.236;2024-02-23T16:46:23;6.30;99.90
5930;DHT22;2990;48.746;9.236;2024-02-23T16:48:49;6.20;99.90
5930;DHT22;2990;48.746;9.236;2024-02-23T16:51:15;6.20;1.00
5930;DHT22;2990;48.746;9.236;2024-02-23T16:53:40;6.20;1.00
5930;DHT22;2990;48.746;9.236;2024-02-23T17:40:26;5.60;84.60
5930;DHT22;2990;48.746;9.236;2024-02-23T17:42:52;5.60;1.00
5930;DHT22;2990;48.746;9.236;2024-02-23T17:45:17;5.60;1.00
5930;DHT22;2990;48.746;9.236;2024-02-23T17:47:43;5.60;99.90